createdAt,value
2019-01-30T00:00:28.752Z,1.00
2019-01-30T00:03:32.412Z,1.00
2019-01-30T00:06:36.103Z,1.00
2019-01-30T00:09:39.787Z,1.00
2019-01-30T00:12:43.355Z,1.00
2019-01-30T00:15:56.022Z,1.00
2019-01-30T00:18:52.222Z,1.00
2019-01-30T00:21:55.927Z,0.90
2019-01-30T00:24:59.632Z,0.90
2019-01-30T00:28:03.303Z,0.90
2019-01-30T00:31:06.992Z,0.90
2019-01-30T00:34:10.655Z,1.00
2019-01-30T00:37:14.327Z,0.90
2019-01-30T00:40:19.842Z,0.90
2019-01-30T00:43:23.560Z,0.90
2019-01-30T00:46:27.198Z,0.90
2019-01-30T00:49:30.863Z,1.00
2019-01-30T00:52:34.528Z,0.90
2019-01-30T00:55:38.253Z,1.00
2019-01-30T00:58:41.914Z,0.90
2019-01-30T01:01:45.607Z,0.90
2019-01-30T01:04:49.246Z,0.80
2019-01-30T01:07:52.928Z,0.80
2019-01-30T01:10:56.598Z,0.80
2019-01-30T01:14:00.193Z,0.70
2019-01-30T01:17:03.873Z,0.80
2019-01-30T01:20:10.555Z,0.80
2019-01-30T01:23:14.205Z,0.70
2019-01-30T01:26:17.823Z,0.70
2019-01-30T01:29:21.475Z,0.70
2019-01-30T01:32:25.130Z,0.70
2019-01-30T01:35:28.783Z,0.60
2019-01-30T01:38:32.516Z,0.70
2019-01-30T01:41:36.100Z,0.60
2019-01-30T01:44:39.766Z,0.70
2019-01-30T01:47:43.338Z,0.70
2019-01-30T01:50:48.583Z,0.60
2019-01-30T01:53:52.234Z,0.70
2019-01-30T01:56:55.933Z,0.70
2019-01-30T01:59:59.592Z,0.70
2019-01-30T02:03:03.200Z,0.60
2019-01-30T02:06:06.853Z,0.60
2019-01-30T02:09:10.575Z,0.60
2019-01-30T02:12:14.213Z,0.60
2019-01-30T02:15:19.683Z,0.70
2019-01-30T02:18:23.344Z,0.70
2019-01-30T02:21:27.048Z,0.60
2019-01-30T02:24:30.715Z,0.60
2019-01-30T02:27:34.416Z,0.50
2019-01-30T02:30:47.043Z,0.60
2019-01-30T02:33:43.375Z,0.60
2019-01-30T02:36:56.193Z,0.60
2019-01-30T02:39:59.853Z,0.70
2019-01-30T02:43:03.444Z,0.70
2019-01-30T02:46:07.178Z,0.70
2019-01-30T02:49:10.813Z,0.70
2019-01-30T02:52:14.443Z,0.70
2019-01-30T02:55:19.018Z,0.70
2019-01-30T02:58:22.678Z,0.50
2019-01-30T03:01:26.353Z,0.60
2019-01-30T03:04:30.015Z,0.60
2019-01-30T03:07:33.633Z,0.60
2019-01-30T03:10:38.694Z,0.60
2019-01-30T03:13:42.355Z,0.60
2019-01-30T03:16:46.059Z,0.60
2019-01-30T03:19:49.724Z,0.50
2019-01-30T03:22:54.882Z,0.50
2019-01-30T03:25:58.535Z,0.50
2019-01-30T03:29:02.206Z,0.40
2019-01-30T03:32:05.891Z,0.40
2019-01-30T03:35:10.073Z,0.40
2019-01-30T03:38:13.697Z,0.40
2019-01-30T03:41:17.413Z,0.40
2019-01-30T03:44:21.074Z,0.40
2019-01-30T03:47:24.843Z,0.50
2019-01-30T03:50:28.534Z,0.40
2019-01-30T03:53:32.234Z,0.30
2019-01-30T03:56:35.823Z,0.40
2019-01-30T03:59:39.515Z,0.30
2019-01-30T04:02:43.135Z,0.40
2019-01-30T04:05:46.825Z,0.40
2019-01-30T04:08:50.468Z,0.30
2019-01-30T04:11:54.082Z,0.40
2019-01-30T04:14:57.654Z,0.30
2019-01-30T04:18:01.350Z,0.40
2019-01-30T04:21:04.993Z,0.10
2019-01-30T04:24:08.692Z,0.10
2019-01-30T04:27:12.275Z,0.00
2019-01-30T04:30:24.555Z,0.00
2019-01-30T04:33:28.223Z,0.00
2019-01-30T04:36:32.398Z,0.00
2019-01-30T04:39:36.086Z,0.10
2019-01-30T04:42:39.751Z,0.00
2019-01-30T04:45:44.622Z,0.00
2019-01-30T04:48:48.270Z,0.00
2019-01-30T04:51:51.969Z,0.00
2019-01-30T04:54:55.634Z,-0.10
2019-01-30T04:57:59.311Z,-0.10
2019-01-30T05:01:03.070Z,-0.10
2019-01-30T05:04:06.814Z,-0.20
2019-01-30T05:07:10.472Z,-0.20
2019-01-30T05:10:14.381Z,-0.20
2019-01-30T05:13:18.023Z,-0.20
2019-01-30T05:16:21.703Z,-0.20
2019-01-30T05:19:25.303Z,-0.20
2019-01-30T05:22:28.986Z,-0.20
2019-01-30T05:25:32.606Z,-0.20
2019-01-30T05:28:36.288Z,-0.20
2019-01-30T05:31:39.943Z,-0.20
2019-01-30T05:34:43.652Z,-0.20
2019-01-30T05:37:47.298Z,-0.20
2019-01-30T05:40:51.017Z,-0.20
2019-01-30T05:43:54.576Z,-0.30
2019-01-30T05:46:58.284Z,-0.30
2019-01-30T05:50:01.935Z,-0.30
2019-01-30T05:53:05.895Z,-0.30
2019-01-30T05:56:09.520Z,-0.30
2019-01-30T05:59:13.219Z,-0.30
2019-01-30T06:02:16.856Z,-0.40
2019-01-30T06:05:20.624Z,-0.40
2019-01-30T06:08:25.854Z,-0.40
2019-01-30T06:11:29.595Z,-0.30
2019-01-30T06:14:33.225Z,-0.30
2019-01-30T06:17:36.869Z,-0.40
2019-01-30T06:20:40.519Z,-0.40
2019-01-30T06:23:44.270Z,-0.50
2019-01-30T06:26:47.887Z,-0.40
2019-01-30T06:29:51.563Z,-0.40
2019-01-30T06:32:55.224Z,-0.40
2019-01-30T06:35:58.904Z,-0.40
2019-01-30T06:39:02.554Z,-0.40
2019-01-30T06:42:06.242Z,-0.30
2019-01-30T06:45:10.884Z,-0.30
2019-01-30T06:48:14.592Z,-0.30
2019-01-30T06:51:18.252Z,-0.30
2019-01-30T06:54:21.933Z,-0.20
2019-01-30T06:57:26.825Z,-0.10
2019-01-30T07:00:30.515Z,0.00
2019-01-30T07:03:34.163Z,0.10
2019-01-30T07:06:37.788Z,0.10
2019-01-30T07:09:41.504Z,0.00
2019-01-30T07:12:46.758Z,0.00
2019-01-30T07:15:50.480Z,0.20
2019-01-30T07:26:23.362Z,0.40
2019-01-30T07:29:26.965Z,0.40
2019-01-30T07:32:30.655Z,0.60
2019-01-30T07:35:34.453Z,0.60
2019-01-30T07:38:38.230Z,0.50
2019-01-30T07:41:41.899Z,0.60
2019-01-30T07:44:50.686Z,0.70
2019-01-30T07:47:50.919Z,0.80
2019-01-30T07:50:54.564Z,0.80
2019-01-30T07:53:58.134Z,0.80
2019-01-30T07:57:01.813Z,0.90
2019-01-30T08:00:11.496Z,0.90
2019-01-30T08:03:15.162Z,1.10
2019-01-30T08:06:19.676Z,1.20
2019-01-30T08:09:23.367Z,1.30
2019-01-30T08:12:26.978Z,1.30
2019-01-30T08:15:30.632Z,1.30
2019-01-30T08:18:34.522Z,1.40
2019-01-30T08:21:38.217Z,1.40
2019-01-30T08:24:41.862Z,1.40
2019-01-30T08:27:45.978Z,1.40
2019-01-30T08:30:49.890Z,1.50
2019-01-30T08:33:53.737Z,1.40
2019-01-30T08:36:57.510Z,1.30
2019-01-30T08:40:01.119Z,1.20
2019-01-30T08:43:04.784Z,1.30
2019-01-30T08:46:08.383Z,1.40
2019-01-30T08:49:13.204Z,1.40
2019-01-30T08:52:16.965Z,1.60
2019-01-30T08:55:20.563Z,1.70
2019-01-30T08:58:24.158Z,1.60
2019-01-30T09:01:27.834Z,1.80
2019-01-30T09:04:31.413Z,1.80
2019-01-30T09:07:44.063Z,1.90
2019-01-30T09:10:40.401Z,1.90
2019-01-30T09:13:44.043Z,1.90
2019-01-30T09:16:47.690Z,1.90
2019-01-30T09:19:51.352Z,1.80
2019-01-30T09:22:54.955Z,1.80
2019-01-30T09:25:58.629Z,1.80
2019-01-30T09:29:02.307Z,2.00
2019-01-30T09:32:05.964Z,2.10
2019-01-30T09:35:11.430Z,2.20
2019-01-30T09:38:15.134Z,2.10
2019-01-30T09:41:18.775Z,2.00
2019-01-30T09:44:22.432Z,2.00
2019-01-30T09:47:26.082Z,2.00
2019-01-30T09:50:29.815Z,2.10
2019-01-30T09:53:33.454Z,2.20
2019-01-30T09:56:37.048Z,2.30
2019-01-30T09:59:40.585Z,2.40
2019-01-30T10:02:44.292Z,2.50
2019-01-30T10:05:47.948Z,2.60
2019-01-30T10:08:51.578Z,3.20
2019-01-30T10:11:55.202Z,3.40
2019-01-30T10:14:58.892Z,4.00
2019-01-30T10:18:02.564Z,4.40
2019-01-30T10:21:06.253Z,4.60
2019-01-30T10:24:09.852Z,5.50
2019-01-30T10:27:13.525Z,6.50
2019-01-30T10:30:38.495Z,8.30
2019-01-30T10:33:46.469Z,9.40
2019-01-30T10:36:47.464Z,10.40
2019-01-30T10:39:51.040Z,10.50
2019-01-30T10:42:57.291Z,11.00
2019-01-30T10:46:00.276Z,10.00
2019-01-30T10:49:03.912Z,8.60
2019-01-30T10:52:07.693Z,8.00
2019-01-30T10:55:14.756Z,7.30
2019-01-30T10:58:20.066Z,6.20
2019-01-30T11:01:23.745Z,5.50
2019-01-30T11:04:27.461Z,5.10
2019-01-30T11:07:31.335Z,4.80
2019-01-30T11:10:35.042Z,4.20
2019-01-30T11:13:38.684Z,3.90
2019-01-30T11:16:42.457Z,3.70
2019-01-30T11:19:46.376Z,3.60
2019-01-30T11:22:50.072Z,3.50
2019-01-30T11:25:53.735Z,3.30
2019-01-30T11:28:57.405Z,3.30
2019-01-30T11:32:01.022Z,3.40
2019-01-30T11:35:05.752Z,3.30
2019-01-30T11:38:09.448Z,3.10
2019-01-30T11:41:13.093Z,3.10
2019-01-30T11:44:16.797Z,3.00
2019-01-30T11:47:20.552Z,2.80
2019-01-30T11:50:24.313Z,2.80
2019-01-30T11:53:27.892Z,2.90
2019-01-30T11:56:31.563Z,3.00
2019-01-30T11:59:35.226Z,3.10
2019-01-30T12:02:47.751Z,3.10
2019-01-30T12:05:44.685Z,3.20
2019-01-30T12:08:48.381Z,3.30
2019-01-30T12:11:52.127Z,3.40
2019-01-30T12:14:56.222Z,3.30
2019-01-30T12:18:00.166Z,3.30
2019-01-30T12:21:05.927Z,3.30
2019-01-30T12:24:09.573Z,3.30
2019-01-30T12:27:13.257Z,3.40
2019-01-30T12:30:22.017Z,3.40
2019-01-30T12:33:25.723Z,3.40
2019-01-30T12:36:29.373Z,3.50
2019-01-30T12:39:33.089Z,3.40
2019-01-30T12:42:36.733Z,3.40
2019-01-30T12:45:40.436Z,3.50
2019-01-30T12:48:45.498Z,3.70
2019-01-30T12:51:49.162Z,3.70
2019-01-30T12:54:52.802Z,3.80
2019-01-30T12:57:56.508Z,3.80
2019-01-30T13:01:00.108Z,3.70
2019-01-30T13:04:03.770Z,3.50
2019-01-30T13:07:07.440Z,3.60
2019-01-30T13:10:11.092Z,3.60
2019-01-30T13:13:14.782Z,3.60
2019-01-30T13:16:18.487Z,3.50
2019-01-30T13:19:23.025Z,3.40
2019-01-30T13:22:26.682Z,3.10
2019-01-30T13:25:31.852Z,3.20
2019-01-30T13:28:35.473Z,3.10
2019-01-30T13:31:39.165Z,3.20
2019-01-30T13:34:48.781Z,3.10
2019-01-30T13:37:48.165Z,3.10
2019-01-30T13:40:51.783Z,3.10
2019-01-30T13:43:55.496Z,3.20
2019-01-30T13:46:59.123Z,3.20
2019-01-30T13:50:02.835Z,3.10
2019-01-30T13:53:06.540Z,3.00
2019-01-30T13:56:10.254Z,3.00
2019-01-30T13:59:13.921Z,2.90
2019-01-30T14:02:17.824Z,2.80
2019-01-30T14:05:21.415Z,2.80
2019-01-30T14:08:25.201Z,2.70
2019-01-30T14:11:28.812Z,2.80
2019-01-30T14:14:32.517Z,2.60
2019-01-30T14:17:36.108Z,2.50
2019-01-30T14:20:40.024Z,2.30
2019-01-30T14:23:43.724Z,2.40
2019-01-30T14:26:47.391Z,2.20
2019-01-30T14:29:58.140Z,2.30
2019-01-30T14:32:56.418Z,2.20
2019-01-30T14:36:00.100Z,2.20
2019-01-30T14:39:05.163Z,2.10
2019-01-30T14:42:08.792Z,2.00
2019-01-30T14:45:19.583Z,1.90
2019-01-30T14:48:23.258Z,1.90
2019-01-30T14:51:26.922Z,1.90
2019-01-30T14:54:30.524Z,1.80
2019-01-30T14:57:34.308Z,1.70
2019-01-30T15:00:37.947Z,1.70
2019-01-30T15:03:41.647Z,1.50
2019-01-30T15:06:45.334Z,1.50
2019-01-30T15:09:49.001Z,1.50
2019-01-30T15:12:52.669Z,1.30
2019-01-30T15:15:56.353Z,1.30
2019-01-30T15:19:00.389Z,1.00
2019-01-30T15:22:04.031Z,1.00
2019-01-30T15:25:10.738Z,0.90
2019-01-30T15:28:14.461Z,0.80
2019-01-30T15:31:18.083Z,0.70
2019-01-30T15:34:21.763Z,0.50
2019-01-30T15:37:25.469Z,0.30
2019-01-30T15:40:32.074Z,0.10
2019-01-30T15:43:35.783Z,-0.10
2019-01-30T15:46:39.463Z,-0.30
2019-01-30T15:49:43.148Z,-0.40
2019-01-30T15:52:46.781Z,-0.60
2019-01-30T15:55:50.462Z,-0.70
2019-01-30T15:58:54.118Z,-0.60
2019-01-30T16:01:57.783Z,-0.60
2019-01-30T16:05:01.498Z,-0.60
2019-01-30T16:08:05.757Z,-0.50
2019-01-30T16:11:09.550Z,-0.30
2019-01-30T16:14:13.566Z,-0.30
2019-01-30T16:17:17.346Z,-0.30
2019-01-30T16:20:21.093Z,-0.30
2019-01-30T16:23:25.356Z,-0.30
2019-01-30T16:26:30.193Z,-0.30
2019-01-30T16:29:33.994Z,-0.30
2019-01-30T16:32:37.677Z,-0.30
2019-01-30T16:35:41.355Z,-0.40
2019-01-30T16:38:45.335Z,-0.50
2019-01-30T16:41:49.174Z,-0.40
2019-01-30T16:44:52.924Z,-0.30
2019-01-30T16:47:56.895Z,-0.40
2019-01-30T16:51:00.728Z,-0.50
2019-01-30T16:54:04.407Z,-0.60
2019-01-30T16:57:08.828Z,-0.60
2019-01-30T17:00:21.114Z,-0.70
2019-01-30T17:03:24.952Z,-0.80
2019-01-30T17:06:29.533Z,-1.00
2019-01-30T17:09:33.228Z,-1.10
2019-01-30T17:12:37.607Z,-1.20
2019-01-30T17:15:42.004Z,-1.30
2019-01-30T17:18:45.800Z,-1.30
2019-01-30T17:21:49.564Z,-1.30
2019-01-30T17:24:53.578Z,-1.30
2019-01-30T17:27:57.303Z,-1.30
2019-01-30T17:31:02.749Z,-1.20
2019-01-30T17:34:06.483Z,-1.20
2019-01-30T17:37:10.883Z,-1.10
2019-01-30T17:40:22.871Z,-1.10
2019-01-30T17:43:29.503Z,-1.10
2019-01-30T17:46:35.439Z,-1.10
2019-01-30T17:49:40.666Z,-1.10
2019-01-30T17:52:44.415Z,-1.10
2019-01-30T17:55:48.262Z,-1.10
2019-01-30T17:58:52.015Z,-1.20
2019-01-30T18:01:55.785Z,-1.10
2019-01-30T18:04:59.511Z,-1.00
2019-01-30T18:08:04.805Z,-0.90
2019-01-30T18:11:08.560Z,-0.80
2019-01-30T18:14:12.245Z,-0.70
2019-01-30T18:17:15.977Z,-0.50
2019-01-30T18:20:23.304Z,-0.30
2019-01-30T18:23:26.973Z,-0.30
2019-01-30T18:26:30.720Z,-0.10
2019-01-30T18:29:34.520Z,-0.10
2019-01-30T18:32:38.780Z,0.00
2019-01-30T18:35:43.464Z,0.00
2019-01-30T18:38:47.308Z,0.10
2019-01-30T18:41:50.935Z,0.10
2019-01-30T18:44:54.659Z,0.00
2019-01-30T18:47:58.549Z,0.00
2019-01-30T18:51:02.816Z,0.00
2019-01-30T18:54:06.508Z,-0.10
2019-01-30T18:57:10.264Z,-0.30
2019-01-30T19:00:26.027Z,-0.20
2019-01-30T19:03:29.775Z,-0.20
2019-01-30T19:06:34.692Z,-0.10
2019-01-30T19:09:40.566Z,0.00
2019-01-30T19:12:45.423Z,0.10
2019-01-30T19:15:49.201Z,0.10
2019-01-30T19:18:52.911Z,0.10
2019-01-30T19:21:56.784Z,0.10
2019-01-30T19:25:00.478Z,0.20
2019-01-30T19:28:04.329Z,0.20
2019-01-30T19:31:08.016Z,0.30
2019-01-30T19:34:11.764Z,0.30
2019-01-30T19:40:45.218Z,0.40
2019-01-30T19:43:48.960Z,0.50
2019-01-30T19:46:52.703Z,0.50
2019-01-30T19:49:56.489Z,0.50
2019-01-30T19:53:01.454Z,0.60
2019-01-30T19:56:05.873Z,0.60
2019-01-30T19:59:17.360Z,0.60
2019-01-30T20:02:15.019Z,0.60
2019-01-30T20:05:18.675Z,0.60
2019-01-30T20:08:22.450Z,0.60
2019-01-30T20:11:26.074Z,0.60
2019-01-30T20:14:32.361Z,0.60
2019-01-30T20:17:36.081Z,0.60
2019-01-30T20:20:39.842Z,0.60
2019-01-30T20:23:43.453Z,0.50
2019-01-30T20:26:47.160Z,0.50
2019-01-30T20:29:50.821Z,0.50
2019-01-30T20:32:54.615Z,0.40
2019-01-30T20:35:58.335Z,0.30
2019-01-30T20:39:02.001Z,0.20
2019-01-30T20:42:05.820Z,0.20
2019-01-30T20:45:12.182Z,0.10
2019-01-30T20:48:15.905Z,0.10
2019-01-30T20:51:19.558Z,0.10
2019-01-30T20:54:23.257Z,0.10
2019-01-30T20:57:27.276Z,0.10
2019-01-30T21:00:36.126Z,0.10
2019-01-30T21:03:39.888Z,0.10
2019-01-30T21:06:43.527Z,0.10
2019-01-30T21:09:47.241Z,0.10
2019-01-30T21:12:50.906Z,0.20
2019-01-30T21:15:54.582Z,0.20
2019-01-30T21:18:58.262Z,0.20
2019-01-30T21:22:01.998Z,0.20
2019-01-30T21:25:08.759Z,0.20
2019-01-30T21:28:12.496Z,0.20
2019-01-30T21:31:16.176Z,0.20
2019-01-30T21:34:21.262Z,0.30
2019-01-30T21:37:24.918Z,0.40
2019-01-30T21:40:31.125Z,0.40
2019-01-30T21:43:35.094Z,0.40
2019-01-30T21:46:38.802Z,0.50
2019-01-30T21:49:42.425Z,0.50
2019-01-30T21:52:46.161Z,0.30
2019-01-30T21:55:49.826Z,0.30
2019-01-30T21:58:53.556Z,0.40
2019-01-30T22:02:07.724Z,0.40
2019-01-30T22:05:02.567Z,0.40
2019-01-30T22:08:06.511Z,0.40
2019-01-30T22:11:10.200Z,0.40
2019-01-30T22:14:14.035Z,0.40
2019-01-30T22:17:17.709Z,0.40
2019-01-30T22:20:24.724Z,0.50
2019-01-30T22:23:28.396Z,0.50
2019-01-30T22:26:32.105Z,0.20
2019-01-30T22:29:35.830Z,0.10
2019-01-30T22:32:39.574Z,0.20
2019-01-30T22:35:43.287Z,0.20
2019-01-30T22:38:46.996Z,0.30
2019-01-30T22:41:51.297Z,0.40
2019-01-30T22:44:54.927Z,0.40
2019-01-30T22:48:02.685Z,0.50
2019-01-30T22:51:06.400Z,0.50
2019-01-30T22:54:10.088Z,0.50
2019-01-30T22:57:13.743Z,0.40
2019-01-30T23:00:57.840Z,0.50
2019-01-30T23:04:07.144Z,0.50
2019-01-30T23:07:15.010Z,0.50
2019-01-30T23:10:25.184Z,0.60
2019-01-30T23:13:41.102Z,0.60
2019-01-30T23:16:56.711Z,0.60
2019-01-30T23:20:04.531Z,0.60
2019-01-30T23:23:23.265Z,0.60
2019-01-30T23:26:30.706Z,0.60
2019-01-30T23:30:00.064Z,0.70
2019-01-30T23:33:25.070Z,0.80
2019-01-30T23:36:46.720Z,0.70
2019-01-30T23:39:56.280Z,0.70
2019-01-30T23:43:14.866Z,0.70
2019-01-30T23:46:47.037Z,0.70
2019-01-30T23:50:10.263Z,0.70
2019-01-30T23:53:33.504Z,0.70
2019-01-30T23:56:58.592Z,0.60
